createdAt,value
2018-07-02T00:03:39.643Z,36.70
2018-07-02T00:08:42.848Z,36.90
2018-07-02T00:13:46.076Z,36.80
2018-07-02T00:18:49.299Z,37.00
2018-07-02T00:23:52.784Z,37.00
2018-07-02T00:28:55.972Z,37.10
2018-07-02T00:33:59.354Z,37.20
2018-07-02T00:39:02.562Z,37.20
2018-07-02T00:44:05.864Z,37.20
2018-07-02T00:49:09.103Z,37.20
2018-07-02T00:54:12.308Z,37.40
2018-07-02T00:59:15.533Z,37.20
2018-07-02T01:04:18.752Z,37.30
2018-07-02T01:09:22.004Z,37.50
2018-07-02T01:14:25.271Z,37.60
2018-07-02T01:19:28.534Z,37.30
2018-07-02T01:24:31.827Z,37.30
2018-07-02T01:29:35.079Z,37.40
2018-07-02T01:34:38.507Z,37.30
2018-07-02T01:39:41.752Z,37.50
2018-07-02T01:44:45.083Z,37.60
2018-07-02T01:49:48.351Z,37.80
2018-07-02T01:54:51.635Z,37.80
2018-07-02T01:59:54.899Z,37.90
2018-07-02T02:04:58.162Z,37.80
2018-07-02T02:10:01.434Z,37.80
2018-07-02T02:15:05.267Z,37.80
2018-07-02T02:20:08.548Z,38.00
2018-07-02T02:25:11.810Z,38.00
2018-07-02T02:30:15.039Z,38.10
2018-07-02T02:35:18.271Z,38.00
2018-07-02T02:40:21.524Z,38.00
2018-07-02T02:45:24.804Z,37.90
2018-07-02T02:50:28.115Z,38.10
2018-07-02T02:55:31.354Z,38.00
2018-07-02T03:00:34.602Z,38.10
2018-07-02T03:05:37.895Z,38.30
2018-07-02T03:10:41.152Z,38.30
2018-07-02T03:15:44.402Z,38.10
2018-07-02T03:20:47.624Z,38.10
2018-07-02T03:25:50.878Z,38.30
2018-07-02T03:30:54.115Z,38.20
2018-07-02T03:35:57.335Z,38.30
2018-07-02T03:41:00.603Z,38.30
2018-07-02T03:46:03.871Z,38.30
2018-07-02T03:51:07.163Z,38.70
2018-07-02T03:56:10.554Z,38.20
2018-07-02T04:01:14.166Z,38.40
2018-07-02T04:06:17.596Z,38.50
2018-07-02T04:11:20.872Z,39.00
2018-07-02T04:16:24.147Z,38.70
2018-07-02T04:21:27.407Z,38.70
2018-07-02T04:26:30.644Z,38.50
2018-07-02T04:31:33.922Z,38.80
2018-07-02T04:36:37.283Z,38.60
2018-07-02T04:41:40.511Z,38.90
2018-07-02T04:46:43.760Z,39.20
2018-07-02T04:51:47.035Z,40.10
2018-07-02T04:56:50.315Z,39.90
2018-07-02T05:01:53.572Z,39.30
2018-07-02T05:06:56.814Z,39.20
2018-07-02T05:12:00.052Z,39.10
2018-07-02T05:17:03.330Z,39.00
2018-07-02T05:22:06.628Z,39.30
2018-07-02T05:27:09.879Z,39.30
2018-07-02T05:32:13.997Z,39.40
2018-07-02T05:37:17.256Z,39.50
2018-07-02T05:42:20.483Z,39.20
2018-07-02T05:47:23.763Z,39.20
2018-07-02T05:52:27.035Z,39.50
2018-07-02T05:57:30.308Z,39.50
2018-07-02T06:02:33.616Z,39.80
2018-07-02T06:07:36.928Z,39.60
2018-07-02T06:12:40.173Z,39.40
2018-07-02T06:17:43.448Z,39.80
2018-07-02T06:22:46.695Z,40.20
2018-07-02T06:27:50.083Z,39.60
2018-07-02T06:32:53.639Z,39.60
2018-07-02T06:42:59.884Z,39.50
2018-07-02T06:48:03.163Z,39.70
2018-07-02T06:53:06.620Z,39.50
2018-07-02T06:58:09.858Z,39.60
2018-07-02T07:03:13.108Z,39.40
2018-07-02T07:08:16.355Z,39.30
2018-07-02T07:13:19.599Z,39.20
2018-07-02T07:18:22.851Z,39.60
2018-07-02T07:23:26.119Z,39.80
2018-07-02T07:28:29.343Z,39.60
2018-07-02T07:33:32.698Z,39.40
2018-07-02T07:38:35.932Z,39.50
2018-07-02T07:43:39.172Z,39.30
2018-07-02T07:48:42.448Z,39.50
2018-07-02T07:53:45.708Z,39.00
2018-07-02T07:58:48.957Z,38.40
2018-07-02T08:03:52.196Z,38.50
2018-07-02T08:08:55.496Z,38.10
2018-07-02T08:13:58.747Z,38.50
2018-07-02T08:19:02.066Z,38.10
2018-07-02T08:24:05.291Z,37.10
2018-07-02T08:29:08.540Z,37.10
2018-07-02T08:34:11.767Z,37.20
2018-07-02T08:39:15.020Z,36.10
2018-07-02T08:44:18.251Z,36.50
2018-07-02T08:49:21.488Z,36.90
2018-07-02T08:54:25.277Z,36.10
2018-07-02T08:59:28.521Z,35.50
2018-07-02T09:04:31.768Z,36.30
2018-07-02T09:09:35.012Z,36.60
2018-07-02T09:14:38.295Z,35.10
2018-07-02T09:19:41.532Z,35.00
2018-07-02T09:24:44.777Z,35.80
2018-07-02T09:29:48.002Z,36.00
2018-07-02T09:34:51.239Z,36.60
2018-07-02T09:39:54.468Z,35.20
2018-07-02T09:44:57.694Z,35.10
2018-07-02T09:50:00.935Z,36.20
2018-07-02T09:55:04.196Z,37.50
2018-07-02T10:00:07.487Z,36.20
2018-07-02T10:05:10.743Z,36.90
2018-07-02T10:10:14.025Z,35.80
2018-07-02T10:15:17.239Z,34.40
2018-07-02T10:20:20.513Z,35.80
2018-07-02T10:25:23.936Z,37.30
2018-07-02T10:30:27.179Z,35.10
2018-07-02T10:35:30.400Z,35.70
2018-07-02T10:40:33.646Z,35.60
2018-07-02T10:45:36.930Z,34.40
2018-07-02T10:50:40.187Z,34.60
2018-07-02T10:55:43.490Z,37.20
2018-07-02T11:00:46.704Z,35.30
2018-07-02T11:05:49.980Z,34.80
2018-07-02T11:10:53.220Z,36.30
2018-07-02T11:15:56.495Z,34.40
2018-07-02T11:20:59.768Z,35.70
2018-07-02T11:26:03.015Z,37.60
2018-07-02T11:31:07.347Z,34.00
2018-07-02T11:36:10.606Z,34.70
2018-07-02T11:41:14.144Z,36.60
2018-07-02T11:46:17.415Z,36.20
2018-07-02T11:51:20.684Z,34.80
2018-07-02T11:56:23.939Z,34.80
2018-07-02T12:01:27.728Z,35.40
2018-07-02T12:06:31.411Z,33.70
2018-07-02T12:11:34.679Z,34.10
2018-07-02T12:16:37.972Z,36.70
2018-07-02T12:21:41.179Z,34.80
2018-07-02T12:26:44.408Z,34.70
2018-07-02T12:31:47.704Z,35.70
2018-07-02T12:36:50.992Z,34.20
2018-07-02T12:41:54.255Z,34.20
2018-07-02T12:46:57.645Z,34.10
2018-07-02T12:52:00.896Z,35.80
2018-07-02T12:57:04.139Z,32.80
2018-07-02T13:02:07.387Z,34.40
2018-07-02T13:07:10.616Z,33.50
2018-07-02T13:12:13.847Z,34.60
2018-07-02T13:17:17.135Z,35.30
2018-07-02T13:22:20.399Z,32.30
2018-07-02T13:27:23.660Z,34.30
2018-07-02T13:32:26.964Z,33.90
2018-07-02T13:37:30.216Z,31.60
2018-07-02T13:42:33.492Z,36.40
2018-07-02T13:47:36.754Z,33.80
2018-07-02T13:52:40.224Z,32.30
2018-07-02T13:57:43.488Z,31.60
2018-07-02T14:02:46.773Z,33.80
2018-07-02T14:07:50.084Z,34.20
2018-07-02T14:12:53.344Z,34.20
2018-07-02T14:17:56.599Z,32.20
2018-07-02T14:22:59.855Z,33.40
2018-07-02T14:28:03.103Z,31.00
2018-07-02T14:33:06.361Z,32.10
2018-07-02T14:38:09.587Z,32.50
2018-07-02T14:43:12.820Z,33.80
2018-07-02T14:48:16.063Z,32.40
2018-07-02T14:58:22.679Z,31.40
2018-07-02T15:03:25.899Z,35.10
2018-07-02T15:08:29.147Z,33.90
2018-07-02T15:13:32.379Z,32.20
2018-07-02T15:18:35.655Z,31.90
2018-07-02T15:23:38.915Z,33.70
2018-07-02T15:28:42.171Z,33.20
2018-07-02T15:33:45.549Z,34.10
2018-07-02T15:38:48.863Z,32.40
2018-07-02T15:43:52.128Z,30.20
2018-07-02T15:48:55.402Z,30.30
2018-07-02T15:53:58.681Z,31.30
2018-07-02T15:59:01.932Z,30.30
2018-07-02T16:04:05.171Z,30.00
2018-07-02T16:09:10.386Z,30.00
2018-07-02T16:14:13.659Z,30.80
2018-07-02T16:19:16.932Z,30.80
2018-07-02T16:24:20.187Z,31.20
2018-07-02T16:29:23.517Z,30.70
2018-07-02T16:34:26.738Z,31.30
2018-07-02T16:39:29.971Z,31.40
2018-07-02T16:44:33.211Z,30.80
2018-07-02T16:49:36.459Z,30.70
2018-07-02T16:54:39.737Z,30.60
2018-07-02T16:59:42.986Z,30.90
2018-07-02T17:04:46.237Z,31.60
2018-07-02T17:09:49.458Z,30.90
2018-07-02T17:14:52.686Z,31.50
2018-07-02T17:19:55.947Z,31.50
2018-07-02T17:24:59.265Z,31.80
2018-07-02T17:30:02.520Z,32.10
2018-07-02T17:35:05.919Z,31.50
2018-07-02T17:40:09.220Z,31.20
2018-07-02T17:45:12.488Z,30.70
2018-07-02T17:50:15.740Z,31.60
2018-07-02T17:55:18.987Z,31.60
2018-07-02T18:00:22.300Z,31.30
2018-07-02T18:05:25.535Z,31.20
2018-07-02T18:10:28.823Z,31.40
2018-07-02T18:15:32.114Z,31.40
2018-07-02T18:20:35.384Z,31.70
2018-07-02T18:25:38.641Z,31.50
2018-07-02T18:30:41.911Z,31.10
2018-07-02T18:35:45.153Z,32.00
2018-07-02T18:40:48.411Z,30.90
2018-07-02T18:45:58.126Z,31.10
2018-07-02T18:51:01.444Z,31.60
2018-07-02T18:56:04.738Z,30.20
2018-07-02T19:01:08.008Z,31.10
2018-07-02T19:06:11.308Z,31.30
2018-07-02T19:11:14.579Z,32.10
2018-07-02T19:16:17.921Z,32.60
2018-07-02T19:21:21.135Z,32.40
2018-07-02T19:26:24.394Z,33.00
2018-07-02T19:31:27.631Z,33.30
2018-07-02T19:36:30.924Z,33.20
2018-07-02T19:41:34.171Z,33.20
2018-07-02T19:46:37.427Z,33.50
2018-07-02T19:51:40.756Z,33.00
2018-07-02T19:56:44.055Z,34.20
2018-07-02T20:01:47.306Z,34.40
2018-07-02T20:06:50.662Z,34.80
2018-07-02T20:11:53.856Z,34.10
2018-07-02T20:16:57.119Z,33.40
2018-07-02T20:22:00.367Z,33.50
2018-07-02T20:27:03.652Z,33.40
2018-07-02T20:37:09.935Z,33.60
2018-07-02T20:42:13.199Z,33.70
2018-07-02T20:47:16.604Z,33.80
2018-07-02T20:52:19.855Z,34.00
2018-07-02T20:57:23.100Z,34.10
2018-07-02T21:02:26.460Z,34.30
2018-07-02T21:07:29.737Z,34.50
2018-07-02T21:12:32.971Z,34.60
2018-07-02T21:17:36.235Z,34.80
2018-07-02T21:22:39.499Z,34.80
2018-07-02T21:27:42.785Z,35.00
2018-07-02T21:32:46.048Z,34.90
2018-07-02T21:37:49.424Z,35.00
2018-07-02T21:42:52.692Z,35.10
2018-07-02T21:47:55.944Z,35.10
2018-07-02T21:58:02.203Z,35.30
2018-07-02T22:03:07.623Z,36.00
2018-07-02T22:08:11.530Z,35.50
2018-07-02T22:13:14.788Z,35.70
2018-07-02T22:18:18.070Z,36.10
2018-07-02T22:23:21.291Z,35.80
2018-07-02T22:28:24.546Z,35.80
2018-07-02T22:33:27.800Z,35.90
2018-07-02T22:43:34.078Z,36.00
2018-07-02T22:48:37.317Z,36.70
2018-07-02T22:53:40.554Z,36.00
2018-07-02T22:58:43.800Z,36.20
2018-07-02T23:03:47.156Z,36.20
2018-07-02T23:08:50.402Z,36.20
2018-07-02T23:13:53.704Z,36.30
2018-07-02T23:18:56.971Z,36.40
2018-07-02T23:24:00.234Z,36.50
2018-07-02T23:29:03.566Z,36.60
2018-07-02T23:34:06.799Z,36.60
2018-07-02T23:39:11.889Z,36.70
2018-07-02T23:44:15.163Z,36.50
2018-07-02T23:49:18.411Z,36.40
2018-07-02T23:54:21.685Z,36.80
2018-07-02T23:59:24.964Z,36.70
